Time;durP1;ratioP1;P1;durP2;ratioP2;P2;SDS_P1;SDS_P2;PMS_P1;PMS_P2;Temp;Humidity;BMP_temperature;BMP_pressure;BME280_temperature;BME280_humidity;BME280_pressure;Samples;Min_cycle;Max_cycle;Signal;HPM_P1;HPM_P2
2022/06/28 00:01:55;;;;;;;9.90;7.93;;;15.10;99.90;;;;;;6180000;23;20583;-76
2022/06/28 00:04:20;;;;;;;12.27;8.88;;;15.00;99.90;;;;;;6180547;23;20021;-76
2022/06/28 00:06:47;;;;;;;9.50;8.10;;;15.10;99.90;;;;;;6207438;23;20333;-76
2022/06/28 00:09:14;;;;;;;11.38;8.80;;;15.10;99.90;;;;;;6207075;23;20436;-76
2022/06/28 00:11:42;;;;;;;7.63;6.55;;;15.10;99.90;;;;;;6208814;23;20086;-77
2022/06/28 00:16:04;;;;;;;12.00;8.63;;;15.00;99.90;;;;;;6205609;23;20017;-76
2022/06/28 00:16:54;;;;;;;15.70;9.93;;;15.00;99.90;;;;;;6181117;23;20461;-76
2022/06/28 00:19:20;;;;;;;10.57;8.18;;;15.00;99.90;;;;;;6178939;23;20017;-76
2022/06/28 00:21:47;;;;;;;11.60;8.45;;;14.90;99.90;;;;;;6181392;23;20020;-76
2022/06/28 00:24:13;;;;;;;10.68;7.88;;;14.90;99.90;;;;;;6179009;23;20119;-76
2022/06/28 00:26:39;;;;;;;12.60;8.38;;;14.90;99.90;;;;;;6206621;23;20509;-76
2022/06/28 00:29:04;;;;;;;11.85;8.18;;;14.90;99.90;;;;;;6180267;23;20025;-76
2022/06/28 00:31:30;;;;;;;9.60;7.70;;;14.90;99.90;;;;;;6181696;23;20143;-78
2022/06/28 00:33:55;;;;;;;10.45;8.05;;;14.80;99.90;;;;;;6178424;23;20040;-76
2022/06/28 00:36:21;;;;;;;9.73;7.30;;;14.90;99.90;;;;;;6180924;23;20028;-77
2022/06/28 00:38:47;;;;;;;10.27;8.18;;;14.90;99.90;;;;;;6181145;23;20044;-76
2022/06/28 00:41:12;;;;;;;10.57;8.50;;;14.70;99.90;;;;;;6179704;23;20024;-77
2022/06/28 00:43:38;;;;;;;11.88;9.02;;;14.80;99.90;;;;;;6179858;23;20017;-77
2022/06/28 00:46:04;;;;;;;11.48;7.03;;;14.70;99.90;;;;;;6208006;23;20326;-77
2022/06/28 00:48:30;;;;;;;13.20;8.50;;;14.70;99.90;;;;;;6180223;23;20120;-78
2022/06/28 00:50:56;;;;;;;10.63;7.85;;;14.70;99.90;;;;;;6181068;23;20020;-77
2022/06/28 00:53:21;;;;;;;14.40;7.97;;;14.70;99.90;;;;;;6206911;23;20489;-77
2022/06/28 00:55:47;;;;;;;14.68;8.80;;;14.70;99.90;;;;;;6180938;23;20016;-77
2022/06/28 00:58:15;;;;;;;12.10;7.45;;;14.70;99.90;;;;;;6207804;23;20441;-78
2022/06/28 01:00:44;;;;;;;10.85;8.73;;;14.70;99.90;;;;;;6179801;23;20067;-77
2022/06/28 01:03:16;;;;;;;11.30;7.38;;;14.60;99.90;;;;;;6179131;23;20083;-77
2022/06/28 01:05:42;;;;;;;10.75;7.78;;;14.50;99.90;;;;;;6178369;23;20092;-76
2022/06/28 01:08:09;;;;;;;10.65;7.65;;;14.60;99.90;;;;;;6179118;23;20028;-78
2022/06/28 01:10:36;;;;;;;9.98;7.43;;;14.60;99.90;;;;;;6180910;23;20025;-77
2022/06/28 01:13:02;;;;;;;14.00;7.35;;;14.60;99.90;;;;;;6180730;23;20027;-77
2022/06/28 01:15:29;;;;;;;14.73;8.40;;;14.60;99.90;;;;;;6181161;23;20046;-76
2022/06/28 01:17:54;;;;;;;14.05;8.02;;;14.60;99.90;;;;;;6182467;23;20027;-77
2022/06/28 01:20:21;;;;;;;11.38;7.72;;;14.40;99.90;;;;;;6210397;23;20055;-78
2022/06/28 01:22:47;;;;;;;11.43;7.93;;;14.40;99.90;;;;;;6181487;23;20025;-77
2022/06/28 01:25:13;;;;;;;11.45;8.40;;;14.50;99.90;;;;;;6209693;23;20024;-78
2022/06/28 01:27:40;;;;;;;12.45;8.15;;;14.40;99.90;;;;;;6209567;23;20017;-78
2022/06/28 01:30:07;;;;;;;18.30;8.40;;;14.40;99.90;;;;;;6213229;23;20127;-77
2022/06/28 01:32:34;;;;;;;13.50;7.47;;;14.40;99.90;;;;;;6212597;23;20095;-79
2022/06/28 01:35:01;;;;;;;12.40;7.43;;;14.30;99.90;;;;;;6210122;23;20012;-78
2022/06/28 01:37:27;;;;;;;10.43;6.75;;;14.30;99.90;;;;;;6212104;23;20019;-77
2022/06/28 01:39:53;;;;;;;10.93;7.15;;;14.20;99.90;;;;;;6209510;23;20021;-77
2022/06/28 01:42:19;;;;;;;17.00;7.60;;;14.40;99.90;;;;;;6208739;23;20031;-77
2022/06/28 01:44:45;;;;;;;11.63;7.05;;;14.30;99.90;;;;;;6180976;23;20028;-77
2022/06/28 01:47:13;;;;;;;11.45;6.75;;;14.30;99.90;;;;;;6209089;23;20012;-76
2022/06/28 01:49:39;;;;;;;10.48;5.75;;;14.30;99.90;;;;;;6182193;23;20119;-77
2022/06/28 01:52:05;;;;;;;11.52;6.28;;;14.20;99.90;;;;;;6181953;23;20016;-79
2022/06/28 01:54:31;;;;;;;11.23;6.47;;;14.20;99.90;;;;;;6181469;23;20434;-77
2022/06/28 01:56:56;;;;;;;11.40;5.95;;;14.30;99.90;;;;;;6182574;23;20024;-76
2022/06/28 01:59:23;;;;;;;12.65;6.10;;;14.30;99.90;;;;;;6208116;23;20016;-76
2022/06/28 02:01:50;;;;;;;10.85;6.57;;;14.20;99.90;;;;;;6181858;23;20521;-77
2022/06/28 02:04:22;;;;;;;10.48;5.85;;;14.20;99.90;;;;;;6207613;23;20525;-79
2022/06/28 02:06:48;;;;;;;15.32;7.10;;;14.20;99.90;;;;;;6208630;23;20024;-77
2022/06/28 02:09:14;;;;;;;17.17;7.10;;;14.20;99.90;;;;;;6181446;23;20079;-77
2022/06/28 02:11:40;;;;;;;13.93;7.20;;;14.20;99.90;;;;;;6207254;23;20013;-76
2022/06/28 02:14:05;;;;;;;11.45;7.00;;;14.20;99.90;;;;;;6180089;23;20031;-77
2022/06/28 02:16:31;;;;;;;8.90;5.95;;;14.20;99.90;;;;;;6210064;23;20012;-76
2022/06/28 02:18:57;;;;;;;11.50;6.97;;;14.20;99.90;;;;;;6207589;23;20047;-77
2022/06/28 02:21:22;;;;;;;14.77;6.50;;;14.30;99.90;;;;;;6181424;23;20463;-76
2022/06/28 02:23:48;;;;;;;8.25;6.03;;;14.20;99.90;;;;;;6208829;23;20087;-76
2022/06/28 02:26:14;;;;;;;12.35;6.38;;;14.20;99.90;;;;;;6181058;23;20029;-77
2022/06/28 02:28:41;;;;;;;10.50;6.75;;;14.20;99.90;;;;;;6182146;23;20097;-76
2022/06/28 02:31:14;;;;;;;10.77;6.43;;;14.20;99.90;;;;;;6208800;23;20020;-76
2022/06/28 02:33:42;;;;;;;17.20;7.68;;;14.20;99.90;;;;;;6208409;23;20020;-76
2022/06/28 02:41:38;;;;;;;10.82;6.93;;;14.10;99.90;;;;;;6208871;23;20036;-75
2022/06/28 02:44:04;;;;;;;11.70;6.95;;;14.10;99.90;;;;;;6207511;23;20052;-75
2022/06/28 02:46:30;;;;;;;11.15;6.75;;;14.10;99.90;;;;;;6208194;23;20029;-76
2022/06/28 02:48:55;;;;;;;12.23;6.95;;;14.10;99.90;;;;;;6209693;23;20020;-77
2022/06/28 02:51:21;;;;;;;11.52;6.32;;;14.10;99.90;;;;;;6182129;23;20020;-76
2022/06/28 02:53:48;;;;;;;11.48;7.25;;;14.10;99.90;;;;;;6207430;23;20016;-76
2022/06/28 02:56:13;;;;;;;12.85;6.85;;;14.10;99.90;;;;;;6182544;23;20067;-76
2022/06/28 02:58:39;;;;;;;11.20;6.90;;;14.10;99.90;;;;;;6207637;23;20013;-76
2022/06/28 03:01:05;;;;;;;10.50;7.13;;;14.10;99.90;;;;;;6207174;23;20013;-76
2022/06/28 03:03:30;;;;;;;12.48;7.20;;;14.10;99.90;;;;;;6206066;23;20008;-76
2022/06/28 03:05:56;;;;;;;11.40;6.50;;;14.00;99.90;;;;;;6209193;23;20013;-78
2022/06/28 03:08:22;;;;;;;10.45;6.40;;;14.10;99.90;;;;;;6207747;23;20008;-77
2022/06/28 03:10:48;;;;;;;14.38;7.40;;;14.00;99.90;;;;;;6208080;23;20055;-77
2022/06/28 03:13:13;;;;;;;11.35;6.93;;;14.00;99.90;;;;;;6180523;23;20054;-77
2022/06/28 03:15:39;;;;;;;14.52;6.38;;;13.90;99.90;;;;;;6208081;23;20396;-77
2022/06/28 03:18:05;;;;;;;13.23;6.28;;;13.90;99.90;;;;;;6208087;23;20013;-77
2022/06/28 03:20:31;;;;;;;14.18;6.97;;;13.80;99.90;;;;;;6207916;23;20099;-77
2022/06/28 03:22:56;;;;;;;9.73;5.68;;;13.80;99.90;;;;;;6180244;23;20111;-78
2022/06/28 03:25:22;;;;;;;19.85;6.88;;;13.70;99.90;;;;;;6208449;23;20016;-77
2022/06/28 03:27:48;;;;;;;11.43;6.88;;;13.80;99.90;;;;;;6207800;23;20464;-77
2022/06/28 03:30:14;;;;;;;11.48;6.95;;;13.80;99.90;;;;;;6181164;23;20025;-77
2022/06/28 03:32:40;;;;;;;12.38;6.50;;;13.80;99.90;;;;;;6181284;23;20020;-78
2022/06/28 03:35:07;;;;;;;11.93;6.22;;;13.80;99.90;;;;;;6181610;23;20035;-77
2022/06/28 03:37:33;;;;;;;15.15;7.32;;;13.80;99.90;;;;;;6180102;23;20017;-77
2022/06/28 03:39:59;;;;;;;14.32;6.65;;;13.80;99.90;;;;;;6207359;23;20440;-77
2022/06/28 03:42:25;;;;;;;15.35;7.07;;;13.80;99.90;;;;;;6209000;23;20012;-77
2022/06/28 03:44:51;;;;;;;11.27;6.32;;;13.90;99.90;;;;;;6179601;23;20100;-77
2022/06/28 03:47:17;;;;;;;13.73;7.20;;;13.90;99.90;;;;;;6208520;23;20024;-78
2022/06/28 03:49:43;;;;;;;16.80;7.28;;;13.90;99.90;;;;;;6206796;23;20025;-77
2022/06/28 03:52:09;;;;;;;13.55;6.72;;;13.90;99.90;;;;;;6180950;23;20009;-77
2022/06/28 03:54:34;;;;;;;13.73;6.72;;;13.90;99.90;;;;;;6207562;23;20055;-77
2022/06/28 03:57:00;;;;;;;17.40;6.75;;;13.90;99.90;;;;;;6206819;23;20017;-78
2022/06/28 03:59:26;;;;;;;12.80;6.88;;;13.90;99.90;;;;;;6206887;23;20016;-77
2022/06/28 04:01:52;;;;;;;10.77;6.90;;;13.90;99.90;;;;;;6180693;23;20021;-77
2022/06/28 04:04:18;;;;;;;10.13;6.10;;;13.90;99.90;;;;;;6178819;23;20020;-77
2022/06/28 04:06:44;;;;;;;12.60;6.32;;;14.00;99.90;;;;;;6208011;23;20495;-78
2022/06/28 04:09:09;;;;;;;16.33;6.32;;;14.00;99.90;;;;;;6205483;23;20024;-78
2022/06/28 04:11:35;;;;;;;10.95;6.20;;;14.00;99.90;;;;;;6206276;23;20013;-76
2022/06/28 04:14:01;;;;;;;15.13;6.78;;;14.00;99.90;;;;;;6206741;23;20440;-77
2022/06/28 04:16:26;;;;;;;16.40;5.90;;;14.00;99.90;;;;;;6181120;23;20027;-76
2022/06/28 04:18:52;;;;;;;14.13;6.82;;;14.00;99.90;;;;;;6205667;23;20024;-75
2022/06/28 04:21:19;;;;;;;14.80;6.38;;;14.00;99.90;;;;;;6207907;23;20012;-76
2022/06/28 04:23:45;;;;;;;14.65;6.18;;;13.90;99.90;;;;;;6207683;23;20059;-76
2022/06/28 04:26:11;;;;;;;11.25;6.07;;;14.00;99.90;;;;;;6179556;23;20013;-76
2022/06/28 04:28:37;;;;;;;16.02;5.95;;;14.00;99.90;;;;;;6180206;23;20071;-76
2022/06/28 04:31:03;;;;;;;11.93;5.45;;;14.00;99.90;;;;;;6208015;23;20432;-77
2022/06/28 04:33:29;;;;;;;8.60;5.28;;;13.90;99.90;;;;;;6180572;23;20091;-77
2022/06/28 04:35:55;;;;;;;18.75;6.65;;;14.00;99.90;;;;;;6209056;23;20059;-76
2022/06/28 04:38:22;;;;;;;11.75;5.93;;;14.00;99.90;;;;;;6179853;23;20098;-76
2022/06/28 04:40:48;;;;;;;12.80;6.35;;;14.00;99.90;;;;;;6207871;23;20095;-75
2022/06/28 04:43:13;;;;;;;16.10;5.95;;;14.00;99.90;;;;;;6207374;23;20101;-76
2022/06/28 04:45:39;;;;;;;14.50;5.70;;;14.10;99.90;;;;;;6208428;23;20013;-76
2022/06/28 04:48:05;;;;;;;12.57;5.72;;;14.10;99.90;;;;;;6207032;23;20033;-76
2022/06/28 04:50:31;;;;;;;13.85;5.97;;;14.10;99.90;;;;;;6180263;23;20029;-75
2022/06/28 04:52:57;;;;;;;18.90;6.15;;;14.20;99.90;;;;;;6206961;23;20674;-75
2022/06/28 04:55:22;;;;;;;16.75;6.10;;;14.20;99.90;;;;;;6206669;23;20496;-76
2022/06/28 04:57:48;;;;;;;13.25;5.07;;;14.30;99.90;;;;;;6179372;23;20055;-79
2022/06/28 05:00:14;;;;;;;15.75;6.47;;;14.30;99.90;;;;;;6206279;23;20060;-77
2022/06/28 05:02:41;;;;;;;12.82;5.00;;;14.30;99.90;;;;;;6207181;23;20031;-78
2022/06/28 05:05:08;;;;;;;11.15;5.45;;;14.30;99.90;;;;;;6207745;23;20398;-78
2022/06/28 05:07:38;;;;;;;10.80;4.68;;;14.40;99.90;;;;;;6178086;23;20020;-79
2022/06/28 05:10:04;;;;;;;17.52;4.95;;;14.50;99.90;;;;;;6209274;23;20055;-77
2022/06/28 05:12:29;;;;;;;14.75;5.43;;;14.50;99.90;;;;;;6179803;23;20020;-79
2022/06/28 05:14:55;;;;;;;14.70;4.28;;;14.60;99.90;;;;;;6205996;23;20019;-78
2022/06/28 05:17:21;;;;;;;13.55;4.80;;;14.60;99.90;;;;;;6208260;23;20103;-78
2022/06/28 05:19:48;;;;;;;10.48;3.90;;;14.70;99.90;;;;;;6181008;23;20092;-77
2022/06/28 05:22:14;;;;;;;7.97;4.43;;;14.70;99.90;;;;;;6207874;23;20120;-77
2022/06/28 05:24:40;;;;;;;10.32;4.32;;;14.70;99.90;;;;;;6179438;23;20513;-78
2022/06/28 05:27:06;;;;;;;13.13;4.53;;;14.80;99.90;;;;;;6180458;23;20100;-78
2022/06/28 05:29:31;;;;;;;8.60;3.88;;;14.80;99.90;;;;;;6179365;23;20100;-79
2022/06/28 05:31:57;;;;;;;14.77;4.38;;;14.70;99.90;;;;;;6205696;23;20012;-79
2022/06/28 05:34:23;;;;;;;7.25;4.03;;;14.90;99.90;;;;;;6206501;23;20028;-80
2022/06/28 05:36:49;;;;;;;16.52;4.43;;;14.90;99.90;;;;;;6206819;23;20009;-78
2022/06/28 05:39:15;;;;;;;10.15;4.55;;;15.10;99.90;;;;;;6180231;23;20071;-78
2022/06/28 05:41:44;;;;;;;10.43;5.30;;;15.10;99.90;;;;;;6207979;23;20059;-77
2022/06/28 05:44:10;;;;;;;10.85;5.05;;;15.10;99.90;;;;;;6204643;23;20024;-78
2022/06/28 05:46:39;;;;;;;7.18;3.95;;;15.10;99.90;;;;;;6181909;23;20021;-78
2022/06/28 05:49:05;;;;;;;10.73;3.65;;;15.20;99.90;;;;;;6209183;23;20381;-78
2022/06/28 05:51:30;;;;;;;10.90;4.68;;;15.20;99.90;;;;;;6207428;23;20021;-79
2022/06/28 05:53:56;;;;;;;9.70;4.38;;;15.30;99.90;;;;;;6180124;23;20016;-78
2022/06/28 05:56:22;;;;;;;15.35;4.25;;;15.30;99.90;;;;;;6208206;23;20024;-79
2022/06/28 05:58:48;;;;;;;10.23;4.25;;;15.30;99.90;;;;;;6206858;23;20013;-78
2022/06/28 06:01:14;;;;;;;8.05;4.00;;;15.40;99.90;;;;;;6178891;23;20032;-79
2022/06/28 06:03:40;;;;;;;11.70;4.15;;;15.50;99.90;;;;;;6208074;23;20019;-78
2022/06/28 06:06:06;;;;;;;9.32;4.18;;;15.40;99.90;;;;;;6207792;23;20021;-81
2022/06/28 06:08:32;;;;;;;12.13;4.82;;;15.50;99.90;;;;;;6180884;23;20021;-79
2022/06/28 06:10:57;;;;;;;10.77;4.22;;;15.50;99.90;;;;;;6208834;23;20024;-79
2022/06/28 06:13:23;;;;;;;9.75;4.55;;;15.60;99.90;;;;;;6182391;23;20017;-78
2022/06/28 06:15:48;;;;;;;9.07;4.82;;;15.60;99.90;;;;;;6181575;23;20055;-78
2022/06/28 06:18:14;;;;;;;9.85;5.15;;;15.60;99.90;;;;;;6182806;23;20449;-79
2022/06/28 06:20:40;;;;;;;10.15;4.25;;;15.60;99.90;;;;;;6184247;23;20020;-79
2022/06/28 06:23:05;;;;;;;9.27;4.63;;;15.70;99.90;;;;;;6180825;23;20017;-80
2022/06/28 06:25:31;;;;;;;10.60;4.65;;;15.70;99.90;;;;;;6180901;23;20073;-79
2022/06/28 06:27:57;;;;;;;14.00;4.32;;;15.80;99.90;;;;;;6206568;23;20088;-80
2022/06/28 06:30:22;;;;;;;9.65;4.82;;;15.80;99.90;;;;;;6208143;23;20221;-79
2022/06/28 06:32:48;;;;;;;10.75;4.50;;;15.80;99.90;;;;;;6207355;23;20024;-78
2022/06/28 06:35:13;;;;;;;10.75;4.22;;;15.90;99.90;;;;;;6207911;23;20024;-78
2022/06/28 06:37:39;;;;;;;11.00;4.20;;;16.00;99.90;;;;;;6208058;23;20396;-81
2022/06/28 06:40:05;;;;;;;9.45;4.00;;;16.00;99.90;;;;;;6181167;23;20083;-79
2022/06/28 06:42:31;;;;;;;11.63;4.28;;;16.10;99.90;;;;;;6207434;23;20091;-80
2022/06/28 06:44:58;;;;;;;6.72;3.55;;;16.10;99.90;;;;;;6182155;23;20086;-80
2022/06/28 06:47:24;;;;;;;12.93;4.25;;;16.10;99.90;;;;;;6209262;23;20016;-81
2022/06/28 06:49:49;;;;;;;12.90;4.05;;;16.20;99.90;;;;;;6183120;23;20021;-79
2022/06/28 06:52:16;;;;;;;17.50;4.00;;;16.20;99.90;;;;;;6181743;23;20403;-80
2022/06/28 06:54:41;;;;;;;7.65;3.90;;;16.20;99.90;;;;;;6208164;23;20017;-79
2022/06/28 06:57:07;;;;;;;11.52;3.92;;;16.30;99.90;;;;;;6209815;23;20020;-81
2022/06/28 06:59:33;;;;;;;10.65;4.35;;;16.30;99.90;;;;;;6182210;23;20036;-80
2022/06/28 07:01:59;;;;;;;12.77;4.10;;;16.30;99.90;;;;;;6209309;23;20100;-80
2022/06/28 07:04:27;;;;;;;10.98;4.18;;;16.40;99.90;;;;;;6209714;23;20048;-79
2022/06/28 07:06:55;;;;;;;10.55;3.63;;;16.40;99.90;;;;;;6207498;23;20012;-80
2022/06/28 07:09:22;;;;;;;10.38;3.63;;;16.50;99.90;;;;;;6211301;23;20024;-77
2022/06/28 07:11:49;;;;;;;8.73;2.83;;;16.40;99.90;;;;;;6212244;23;20588;-79
2022/06/28 07:14:14;;;;;;;8.80;2.90;;;16.70;99.90;;;;;;6220935;23;20013;-79
2022/06/28 07:16:40;;;;;;;11.52;3.60;;;16.60;99.90;;;;;;6213080;23;20012;-78
2022/06/28 07:19:06;;;;;;;9.63;2.83;;;16.70;99.90;;;;;;6218110;23;20016;-77
2022/06/28 07:21:31;;;;;;;7.90;2.53;;;16.70;99.90;;;;;;6182121;23;20008;-77
2022/06/28 07:23:57;;;;;;;11.38;3.03;;;16.80;99.90;;;;;;6182149;23;20028;-77
2022/06/28 07:26:23;;;;;;;7.57;2.83;;;16.80;99.90;;;;;;6209111;23;20024;-77
2022/06/28 07:28:49;;;;;;;12.43;3.30;;;16.90;99.90;;;;;;6207489;23;20437;-78
2022/06/28 07:31:15;;;;;;;8.57;3.10;;;16.90;99.90;;;;;;6209705;23;20031;-77
2022/06/28 07:33:42;;;;;;;14.20;2.90;;;17.00;99.90;;;;;;6182038;23;20017;-77
2022/06/28 07:36:08;;;;;;;7.22;2.72;;;17.10;99.90;;;;;;6180674;23;20118;-80
2022/06/28 07:38:34;;;;;;;19.45;2.80;;;17.20;99.90;;;;;;6209147;23;20305;-78
2022/06/28 07:41:00;;;;;;;7.70;1.95;;;17.20;99.90;;;;;;6182626;23;20083;-77
2022/06/28 07:43:25;;;;;;;8.23;1.50;;;17.30;99.90;;;;;;6207099;23;20392;-77
2022/06/28 07:45:52;;;;;;;13.93;2.25;;;17.30;99.90;;;;;;6208132;23;20075;-76
2022/06/28 07:48:19;;;;;;;11.48;2.10;;;17.40;99.90;;;;;;6208973;23;20111;-77
2022/06/28 07:53:32;;;;;;;10.80;2.03;;;17.40;99.90;;;;;;6208481;23;20036;-77
2022/06/28 07:55:58;;;;;;;9.50;2.47;;;17.50;99.90;;;;;;6209029;23;20020;-77
2022/06/28 07:58:24;;;;;;;12.40;2.10;;;17.50;99.90;;;;;;6208037;23;20127;-77
2022/06/28 08:00:50;;;;;;;6.82;1.83;;;17.60;99.90;;;;;;6182551;23;20047;-86
2022/06/28 08:03:16;;;;;;;12.25;2.33;;;17.60;99.90;;;;;;6182229;23;20118;-80
2022/06/28 08:05:41;;;;;;;11.57;2.60;;;17.60;99.90;;;;;;6208399;23;20012;-78
2022/06/28 08:08:08;;;;;;;10.77;2.00;;;17.70;99.90;;;;;;6181582;23;20087;-76
2022/06/28 08:10:33;;;;;;;11.68;1.88;;;17.80;99.90;;;;;;6182051;23;20020;-80
2022/06/28 08:12:59;;;;;;;10.88;2.08;;;17.80;99.90;;;;;;6180793;23;20096;-79
2022/06/28 08:15:25;;;;;;;7.63;1.70;;;17.90;99.90;;;;;;6208716;23;20055;-78
2022/06/28 08:17:51;;;;;;;8.15;1.73;;;17.90;99.90;;;;;;6180405;23;20016;-78
2022/06/28 08:20:17;;;;;;;5.85;1.40;;;18.00;99.90;;;;;;6207782;23;20134;-78
2022/06/28 08:22:42;;;;;;;6.15;1.60;;;18.00;99.90;;;;;;6181261;23;20155;-79
2022/06/28 08:25:08;;;;;;;6.65;1.52;;;18.10;99.90;;;;;;6207539;23;20020;-80
2022/06/28 08:27:34;;;;;;;7.45;2.33;;;18.10;99.90;;;;;;6180667;23;20531;-80
2022/06/28 08:30:00;;;;;;;8.77;1.67;;;18.00;99.90;;;;;;6206473;23;20013;-79
2022/06/28 08:32:26;;;;;;;7.00;2.00;;;18.10;99.90;;;;;;6180254;23;20019;-78
2022/06/28 08:34:51;;;;;;;12.07;1.80;;;18.10;99.90;;;;;;6180844;23;20070;-78
2022/06/28 08:37:17;;;;;;;7.38;1.58;;;18.10;99.90;;;;;;6180860;23;20438;-81
2022/06/28 08:39:43;;;;;;;11.93;1.90;;;18.20;99.90;;;;;;6180171;23;20043;-79
2022/06/28 08:42:11;;;;;;;8.10;1.48;;;18.20;99.90;;;;;;6208754;23;20326;-80
2022/06/28 08:44:37;;;;;;;7.85;1.17;;;18.20;99.90;;;;;;6207509;23;20051;-80
2022/06/28 08:47:03;;;;;;;8.80;1.77;;;18.20;99.90;;;;;;6207908;23;20480;-78
2022/06/28 08:49:47;;;;;;;11.30;1.45;;;18.30;99.90;;;;;;6181633;23;20143;-79
2022/06/28 08:52:14;;;;;;;11.10;1.63;;;18.30;99.90;;;;;;6207662;23;20098;-80
2022/06/28 08:54:41;;;;;;;6.63;1.35;;;18.40;99.90;;;;;;6208199;23;20009;-78
2022/06/28 08:57:07;;;;;;;7.20;1.63;;;18.50;99.90;;;;;;6208721;23;20282;-77
2022/06/28 08:59:34;;;;;;;5.78;1.35;;;18.50;99.90;;;;;;6206994;23;20052;-77
2022/06/28 09:02:01;;;;;;;5.97;1.33;;;18.50;99.90;;;;;;6208650;23;20112;-78
2022/06/28 09:04:31;;;;;;;6.93;1.15;;;18.50;99.90;;;;;;6183050;23;20522;-77
2022/06/28 09:06:56;;;;;;;7.47;1.42;;;18.60;99.90;;;;;;6181568;23;20012;-79
2022/06/28 09:09:22;;;;;;;7.40;1.75;;;18.70;99.90;;;;;;6218816;23;20354;-79
2022/06/28 09:11:48;;;;;;;5.22;1.33;;;18.70;99.90;;;;;;6212376;23;20090;-78
2022/06/28 09:14:29;;;;;;;6.60;1.20;;;18.80;99.90;;;;;;6217254;23;20025;-78
2022/06/28 09:16:57;;;;;;;9.95;2.00;;;18.90;99.90;;;;;;6182702;23;20025;-80
2022/06/28 09:19:53;;;;;;;3.67;1.10;;;19.00;99.90;;;;;;6181480;23;20023;-78
2022/06/28 09:22:30;;;;;;;5.97;1.35;;;19.10;99.90;;;;;;6172777;23;20035;-78
2022/06/28 09:24:57;;;;;;;8.27;1.48;;;19.20;99.90;;;;;;6165412;23;20021;-80
2022/06/28 09:27:33;;;;;;;7.53;1.52;;;19.20;99.90;;;;;;6180985;23;20087;-79
2022/06/28 09:29:59;;;;;;;6.13;1.30;;;19.30;99.90;;;;;;6207448;23;20052;-78
2022/06/28 09:32:33;;;;;;;6.70;1.52;;;19.40;99.90;;;;;;6182013;23;20349;-78
2022/06/28 09:35:05;;;;;;;5.97;1.30;;;19.50;99.90;;;;;;6180327;23;20039;-77
2022/06/28 09:37:32;;;;;;;9.25;1.50;;;19.60;99.90;;;;;;6183024;23;20294;-77
2022/06/28 09:40:12;;;;;;;7.50;1.65;;;19.60;99.90;;;;;;6210266;23;20021;-78
2022/06/28 09:42:39;;;;;;;8.55;1.63;;;19.70;99.90;;;;;;6181494;23;20020;-78
2022/06/28 09:45:05;;;;;;;6.20;1.30;;;19.70;99.90;;;;;;6183296;23;20020;-75
2022/06/28 09:47:31;;;;;;;9.00;2.20;;;19.70;99.90;;;;;;6209092;23;20049;-77
2022/06/28 09:50:04;;;;;;;9.30;1.88;;;19.60;99.90;;;;;;6208496;23;20012;-78
2022/06/28 09:52:30;;;;;;;7.95;1.30;;;19.60;99.90;;;;;;6210486;23;20055;-77
2022/06/28 09:54:58;;;;;;;8.93;1.83;;;19.50;99.90;;;;;;6181985;23;20017;-78
2022/06/28 09:57:25;;;;;;;12.48;2.47;;;19.50;99.90;;;;;;6181802;23;20330;-77
2022/06/28 09:59:53;;;;;;;10.05;2.10;;;19.40;99.90;;;;;;6209339;23;20087;-80
2022/06/28 10:02:18;;;;;;;6.95;1.60;;;19.40;99.90;;;;;;6182177;23;20009;-78
2022/06/28 10:04:45;;;;;;;7.95;1.45;;;19.30;99.90;;;;;;6209252;23;20087;-78
2022/06/28 10:07:12;;;;;;;4.22;1.35;;;19.30;99.90;;;;;;6182875;23;20013;-80
2022/06/28 10:09:38;;;;;;;11.25;1.77;;;19.30;99.90;;;;;;6180396;23;20016;-79
2022/06/28 10:15:06;;;;;;;11.10;1.58;;;19.30;99.90;;;;;;6157132;23;20040;-76
2022/06/28 10:17:58;;;;;;;10.75;1.58;;;19.30;99.90;;;;;;6204544;23;20437;-76
2022/06/28 10:20:25;;;;;;;14.40;2.58;;;19.50;99.90;;;;;;6121486;23;20070;-76
2022/06/28 10:22:51;;;;;;;10.48;1.60;;;19.60;99.90;;;;;;6166035;23;20083;-75
2022/06/28 10:25:23;;;;;;;8.35;2.40;;;19.70;99.90;;;;;;6205402;23;20048;-77
2022/06/28 10:27:53;;;;;;;8.60;2.38;;;19.80;99.90;;;;;;6205905;23;20028;-79
2022/06/28 10:30:24;;;;;;;4.30;1.00;;;19.80;99.90;;;;;;6182878;23;20031;-77
2022/06/28 10:33:04;;;;;;;7.10;1.50;;;19.70;99.90;;;;;;6178138;23;20294;-76
2022/06/28 10:35:53;;;;;;;9.40;1.90;;;19.70;99.90;;;;;;6181150;23;20017;-76
2022/06/28 10:38:19;;;;;;;8.35;1.90;;;19.70;99.90;;;;;;6206824;23;20024;-75
2022/06/28 10:40:47;;;;;;;8.65;1.70;;;19.80;99.90;;;;;;6181375;23;20016;-77
2022/06/28 10:43:33;;;;;;;7.00;1.70;;;19.80;99.90;;;;;;6207952;23;20493;-77
2022/06/28 10:46:04;;;;;;;8.02;1.85;;;19.90;99.90;;;;;;6207387;23;20504;-79
2022/06/28 10:48:31;;;;;;;10.43;1.67;;;20.00;99.90;;;;;;6180716;23;20020;-77
2022/06/28 10:51:03;;;;;;;6.43;1.70;;;20.00;99.90;;;;;;6181229;23;20078;-76
2022/06/28 10:53:49;;;;;;;9.52;1.90;;;20.20;99.60;;;;;;6204105;23;20017;-77
2022/06/28 10:56:16;;;;;;;5.25;1.70;;;20.20;99.90;;;;;;6204469;23;20388;-76
2022/06/28 10:59:06;;;;;;;6.30;1.65;;;20.30;99.90;;;;;;6206571;23;20125;-79
2022/06/28 11:01:44;;;;;;;9.23;1.92;;;20.40;99.70;;;;;;6183120;23;20085;-79
2022/06/28 11:04:22;;;;;;;12.18;2.40;;;20.50;99.90;;;;;;6166235;23;20408;-78
2022/06/28 11:06:49;;;;;;;9.63;1.83;;;20.60;99.80;;;;;;6178064;23;20088;-77
2022/06/28 11:09:34;;;;;;;8.70;1.80;;;20.70;99.70;;;;;;6180966;23;20593;-77
2022/06/28 11:12:12;;;;;;;7.13;1.40;;;20.80;99.50;;;;;;6182731;23;20386;-76
2022/06/28 11:14:54;;;;;;;11.45;1.92;;;20.90;99.30;;;;;;6207760;23;20417;-78
2022/06/28 11:17:27;;;;;;;10.05;1.90;;;21.00;99.50;;;;;;6208383;23;20016;-77
2022/06/28 11:20:01;;;;;;;8.35;1.63;;;21.10;98.60;;;;;;6206869;23;20020;-79
2022/06/28 11:22:32;;;;;;;7.35;2.05;;;21.30;98.40;;;;;;6181259;23;20017;-80
2022/06/28 11:25:01;;;;;;;9.77;1.85;;;21.40;97.60;;;;;;6182115;23;20051;-76
2022/06/28 11:27:27;;;;;;;11.38;2.05;;;21.40;97.50;;;;;;6208333;23;20040;-77
2022/06/28 11:29:59;;;;;;;6.78;2.13;;;21.40;97.20;;;;;;6180964;23;20016;-78
2022/06/28 11:32:29;;;;;;;4.35;1.70;;;21.50;96.80;;;;;;6208691;23;20535;-78
2022/06/28 11:35:14;;;;;;;8.35;1.60;;;21.60;95.70;;;;;;6208811;23;20028;-77
2022/06/28 11:37:50;;;;;;;7.40;1.95;;;21.70;96.90;;;;;;6179884;23;20099;-77
2022/06/28 11:40:40;;;;;;;6.93;1.83;;;21.80;97.60;;;;;;6182207;23;20021;-78
2022/06/28 11:43:08;;;;;;;9.52;1.70;;;22.00;97.30;;;;;;6179158;23;20020;-77
2022/06/28 11:45:36;;;;;;;8.85;1.90;;;22.10;95.90;;;;;;6182556;23;20119;-79
2022/06/28 11:48:04;;;;;;;7.25;1.55;;;22.20;93.90;;;;;;6180687;23;20091;-77
2022/06/28 11:51:04;;;;;;;7.85;1.58;;;22.20;93.20;;;;;;6209911;23;20020;-77
2022/06/28 11:53:30;;;;;;;8.40;1.60;;;22.30;93.70;;;;;;6202636;23;20017;-77
2022/06/28 11:55:59;;;;;;;8.05;1.77;;;22.30;93.50;;;;;;6181005;23;20031;-76
2022/06/28 11:58:32;;;;;;;6.05;1.50;;;22.40;94.10;;;;;;6179867;23;20020;-77
2022/06/28 12:01:13;;;;;;;10.20;1.80;;;22.50;93.20;;;;;;6181064;23;20025;-76
2022/06/28 12:03:42;;;;;;;7.07;2.17;;;22.60;93.40;;;;;;6179198;23;20083;-79
2022/06/28 12:06:10;;;;;;;8.77;1.90;;;22.60;92.00;;;;;;6181189;23;20131;-77
2022/06/28 12:08:44;;;;;;;5.72;1.70;;;22.50;92.10;;;;;;6208702;23;20315;-76
2022/06/28 12:11:34;;;;;;;6.40;1.50;;;22.40;91.30;;;;;;6180471;23;20357;-76
2022/06/28 12:14:09;;;;;;;6.90;1.98;;;22.30;92.10;;;;;;6206000;23;20090;-78
2022/06/28 12:16:41;;;;;;;15.27;1.77;;;22.30;92.30;;;;;;6208086;23;20461;-77
2022/06/28 12:19:09;;;;;;;6.72;1.80;;;22.20;91.50;;;;;;6208489;23;20483;-78
2022/06/28 12:21:36;;;;;;;14.50;1.85;;;22.20;91.30;;;;;;6209666;23;20306;-77
2022/06/28 12:24:03;;;;;;;6.97;1.50;;;22.30;91.30;;;;;;6179722;23;20019;-79
2022/06/28 12:26:43;;;;;;;5.95;1.40;;;22.30;90.70;;;;;;6182408;23;20016;-75
2022/06/28 12:29:10;;;;;;;7.82;1.40;;;22.40;90.30;;;;;;6207136;23;20055;-76
2022/06/28 12:31:39;;;;;;;7.90;1.70;;;22.40;90.30;;;;;;6181349;23;20175;-80
2022/06/28 12:34:08;;;;;;;9.38;1.63;;;22.50;88.80;;;;;;6208106;23;20088;-77
2022/06/28 12:36:35;;;;;;;7.43;1.65;;;22.60;87.90;;;;;;6182436;23;20109;-75
2022/06/28 12:39:01;;;;;;;7.43;1.60;;;22.60;88.80;;;;;;6207818;23;20345;-77
2022/06/28 12:41:27;;;;;;;7.82;1.50;;;22.70;88.00;;;;;;6208869;23;20048;-75
2022/06/28 12:43:52;;;;;;;7.63;2.15;;;22.70;89.00;;;;;;6207927;23;20078;-76
2022/06/28 12:46:18;;;;;;;5.68;1.20;;;22.80;90.30;;;;;;6179578;23;20020;-75
2022/06/28 12:48:44;;;;;;;4.40;1.08;;;22.70;90.70;;;;;;6206498;23;20096;-76
2022/06/28 12:51:09;;;;;;;5.35;1.20;;;22.70;90.30;;;;;;6182476;23;20194;-76
2022/06/28 12:53:35;;;;;;;5.93;1.60;;;22.70;90.70;;;;;;6180971;23;20256;-76
2022/06/28 12:56:00;;;;;;;5.10;1.80;;;22.80;88.90;;;;;;6184470;23;20024;-78